Nearby METAR Reports

 

KSJC - San Jose, California, USA
Distance from station: NE 9mi, 14km
Updated: Wed, 25-Apr-2018 4:53pm PDT
Few Clouds
Few Clouds
 Wind from WNW
Wind: WNW 12 mph , 19 km/h
Temperature: 70°F , 21°C
Dew Point: 52°F , 11°C
Humidity: 53%
Barometer: 30.01 inHg , 1016.3 hPa
Clouds: Few Clouds
Visibility: 8 miles , 13 km
Cloud details: Few Clouds 8000 ft
2018/04/25 23:53 KSJC 252353Z 30010KT 8SM FEW080 21/11 A3001 RMK AO2 SLP160 T02060111 10217 20156 58012
KNUQ - Moffett Nas/Mtn, California, USA
Distance from station: N 9mi, 14km
Updated: Wed, 25-Apr-2018 4:56pm PDT
Clear
Clear
 Wind from NNW
Wind: NNW 13 mph , 20 km/h
Temperature: 64°F , 18°C
Dew Point: 52°F , 11°C
Humidity: 64%
Barometer: 30.02 inHg , 1016.6 hPa
Clouds: Clear
Visibility: 10 miles , 16 km
2018/04/25 23:56 KNUQ 252356Z 34011KT 10SM CLR 18/11 A3002 RMK AO2 SLP169 T01780111 10194 20161 58012
 
KPAO - Palo Alto, California, USA
Distance from station: NNW 14mi, 23km
Updated: Wed, 25-Apr-2018 4:47pm PDT
Clear
Clear
 Wind from NNW
Wind: NNW 12 mph , 19 km/h
Barometer: 30.02 inHg , 1016.6 hPa
Clouds: Clear
Visibility: 8 miles , 13 km
2018/04/25 23:47 KPAO 252347Z 33010KT 8SM SKC A3002
KRHV - San Jose/Reid, California, USA
Distance from station: ENE 12mi, 19km
Updated: Wed, 25-Apr-2018 4:51pm PDT
Haze, Clear
Haze, Clear
 Wind from NW
Wind: NW 15 mph , 24 km/h
Temperature: 72°F , 22°C
Dew Point: 54°F , 12°C
Humidity: 53%
Barometer: 29.98 inHg , 1015.2 hPa
Summary: Haze
Clouds: Clear
Visibility: 6 miles , 10 km
2018/04/25 23:51 KRHV 252351Z 31013KT 6SM HZ SKC 22/12 A2998
 
KOAK - Oakland, California, USA
Distance from station: NNW 31mi, 50km
Updated: Wed, 25-Apr-2018 4:53pm PDT
Clear
Clear
 Wind from WNW
Wind: WNW 15 mph , 24 km/h
Temperature: 61°F , 16°C
Dew Point: 48°F , 9°C
Humidity: 63%
Barometer: 30.04 inHg , 1017.3 hPa
Clouds: Clear
Visibility: 10 miles , 16 km
2018/04/25 23:53 KOAK 252353Z 30013KT 10SM CLR 16/09 A3004 RMK AO2 SLP171 T01560094 10172 20133 58010
KSQL - San Carlos Airpo, California, USA
Distance from station: NW 21mi, 34km
Updated: Wed, 25-Apr-2018 4:47pm PDT
Clear
Clear
 Wind from W
Wind: W 10 mph , 17 km/h
Temperature: 64°F , 18°C
Dew Point: 48°F , 9°C
Humidity: 56%
Barometer: 30.02 inHg , 1016.6 hPa
Clouds: Clear
Visibility: 10 miles , 16 km
2018/04/25 23:47 KSQL 252347Z 27009KT 10SM SKC 18/09 A3002
 
KSFO - San Francisco, California, USA
Distance from station: NW 30mi, 49km
Updated: Wed, 25-Apr-2018 4:56pm PDT
Few Clouds
Few Clouds
 Wind from WNW
Wind: WNW 17 mph , 28 km/h
Temperature: 63°F , 17°C
Dew Point: 46°F , 8°C
Humidity: 56%
Barometer: 30.03 inHg , 1016.9 hPa
Clouds: Few Clouds
Visibility: 10 miles , 16 km
Cloud details: Few Clouds 1500 ft
2018/04/25 23:56 KSFO 252356Z 29015KT 10SM FEW015 17/08 A3003 RMK AO2 SLP168 T01670078 10183 20156 58008
KE16 - San Martin, California, USA
Distance from station: ESE 27mi, 43km
Updated: Wed, 25-Apr-2018 4:55pm PDT
Clear
Clear
 Wind from SE
Wind: SE 14 mph , 22 km/h
Temperature: 68°F , 20°C
Dew Point: 50°F , 10°C
Humidity: 53%
Barometer: 30.02 inHg , 1016.6 hPa
Clouds: Clear
Visibility: 10 miles , 16 km
2018/04/25 23:55 KE16 252355Z AUTO 13012KT 10SM CLR 20/10 A3002 RMK AO2
 
KWVI - Watsonville, California, USA
Distance from station: SSE 27mi, 44km
Updated: Wed, 25-Apr-2018 4:53pm PDT
Clear
Clear
 Wind from SW
Wind: SW 7 mph , 11 km/h
Temperature: 57°F , 14°C
Dew Point: 48°F , 9°C
Humidity: 72%
Barometer: 30.06 inHg , 1017.9 hPa
Clouds: Clear
Visibility: 8 miles , 13 km
2018/04/25 23:53 KWVI 252353Z AUTO 22006KT 8SM CLR 14/09 A3006 RMK AO2 SLP180 T01440094 10156 20122 58009
KHAF - Half Moon Bay, California, USA
Distance from station: WNW 31mi, 50km
Updated: Wed, 25-Apr-2018 5:00pm PDT
Mostly cloudy
Mostly cloudy
 Wind from W
Wind: W 8 mph , 13 km/h
Temperature: 55°F , 13°C
Dew Point: 48°F , 9°C
Humidity: 77%
Barometer: 30.07 inHg , 1018.3 hPa
Clouds: Mostly cloudy
Visibility: 8 miles , 13 km
Cloud details: Mostly cloudy 1600 ft
2018/04/26 00:00 KHAF 260000Z AUTO 28007KT 8SM BKN016 13/09 A3007 RMK AO2
 
KHWD - Hayward, California, USA
Distance from station: N 28mi, 44km
Updated: Wed, 25-Apr-2018 4:54pm PDT
Clear
Clear
 Wind from WNW
Wind: WNW 14 mph , 22 km/h
Temperature: 63°F , 17°C
Dew Point: 46°F , 8°C
Humidity: 56%
Barometer: 30.03 inHg , 1016.9 hPa
Clouds: Clear
Visibility: 10 miles , 16 km
2018/04/25 23:54 KHWD 252354Z 30012KT 10SM CLR 17/08 A3003 RMK AO2 SLP178 T01720083 10183 20150 58009
KLVK - Livermore, California, USA
Distance from station: NNE 31mi, 51km
Updated: Wed, 25-Apr-2018 4:53pm PDT
Clear
Clear
 Wind from WNW
Wind: WNW 12 mph , 19 km/h
Temperature: 73°F , 23°C
Dew Point: 52°F , 11°C
Humidity: 47%
Barometer: 29.98 inHg , 1015.2 hPa
Clouds: Clear
Visibility: 10 miles , 16 km
2018/04/25 23:53 KLVK 252353Z AUTO 29010KT 10SM CLR 23/11 A2998 RMK AO2 SLP150 T02280106 10239 20156 56014